Time,TemperatureF,DewpointF,PressureIn,WindDirection,WindDirectionDegrees,WindSpeedMPH,WindSpeedGustMPH,Humidity,HourlyPrecipIn,Conditions,Clouds,dailyrainin,SoftwareType,DateUTC
2013-06-13 00:01:00,73.2,72.6,29.72,ESE,112,0.0,-999.0,98,-99.99,,,0.00,Acu-Link.com,2013-06-13 04:01:00,
2013-06-13 00:17:00,73.0,72.4,29.72,NNE,22,0.0,-999.0,98,-99.99,,,0.00,Acu-Link.com,2013-06-13 04:17:00,
2013-06-13 00:32:00,72.3,71.7,29.73,NE,45,0.0,-999.0,98,-99.99,,,0.00,Acu-Link.com,2013-06-13 04:32:00,
2013-06-13 00:47:00,71.8,71.2,29.73,West,270,0.0,-999.0,98,-99.99,,,0.00,Acu-Link.com,2013-06-13 04:47:00,
2013-06-13 01:02:00,70.7,70.1,29.72,NW,315,1.7,-999.0,98,-99.99,,,0.00,Acu-Link.com,2013-06-13 05:02:00,
2013-06-13 01:17:00,70.0,69.4,29.74,ESE,112,2.2,-999.0,98,-99.99,,,0.01,Acu-Link.com,2013-06-13 05:17:00,
2013-06-13 01:32:00,69.1,68.5,29.74,NNW,337,1.1,-999.0,98,-99.99,,,0.02,Acu-Link.com,2013-06-13 05:32:00,
2013-06-13 01:47:00,68.5,67.9,29.73,ESE,112,2.2,-999.0,98,-99.99,,,0.07,Acu-Link.com,2013-06-13 05:47:00,
2013-06-13 02:02:00,68.0,67.4,29.73,SW,225,1.7,-999.0,98,-99.99,,,0.10,Acu-Link.com,2013-06-13 06:02:00,
2013-06-13 02:17:00,67.5,66.9,29.73,SW,225,2.7,-999.0,98,-99.99,,,0.11,Acu-Link.com,2013-06-13 06:17:00,
2013-06-13 02:32:00,66.7,66.1,29.72,SSE,157,1.7,-999.0,98,-99.99,,,0.11,Acu-Link.com,2013-06-13 06:32:00,
2013-06-13 02:48:00,66.4,65.8,29.71,East,90,1.7,-999.0,98,-99.99,,,0.11,Acu-Link.com,2013-06-13 06:48:00,
2013-06-13 03:03:00,65.8,65.2,29.71,ESE,112,1.7,-999.0,98,-99.99,,,0.11,Acu-Link.com,2013-06-13 07:03:00,
2013-06-13 03:18:00,65.8,65.2,29.72,West,270,2.2,-999.0,98,-99.99,,,0.11,Acu-Link.com,2013-06-13 07:18:00,
2013-06-13 03:33:00,65.7,65.1,29.72,East,90,2.2,-999.0,98,-99.99,,,0.11,Acu-Link.com,2013-06-13 07:33:00,
2013-06-13 03:48:00,65.7,65.1,29.71,East,90,2.7,-999.0,98,-99.99,,,0.11,Acu-Link.com,2013-06-13 07:48:00,
2013-06-13 04:03:00,65.7,65.1,29.70,SSE,157,1.1,-999.0,98,-99.99,,,0.11,Acu-Link.com,2013-06-13 08:03:00,
2013-06-13 04:18:00,65.7,65.1,29.70,NNE,22,1.7,-999.0,98,-99.99,,,0.11,Acu-Link.com,2013-06-13 08:18:00,
2013-06-13 04:34:00,65.7,65.1,29.69,West,270,2.2,-999.0,98,-99.99,,,0.11,Acu-Link.com,2013-06-13 08:34:00,
2013-06-13 04:49:00,65.7,65.1,29.68,SW,225,2.2,-999.0,98,-99.99,,,0.11,Acu-Link.com,2013-06-13 08:49:00,
2013-06-13 05:04:00,65.8,65.2,29.69,NNE,22,1.7,-999.0,98,-99.99,,,0.11,Acu-Link.com,2013-06-13 09:04:00,
2013-06-13 05:19:00,66.4,65.8,29.67,SW,225,1.7,-999.0,98,-99.99,,,0.11,Acu-Link.com,2013-06-13 09:19:00,
2013-06-13 05:34:00,67.1,66.5,29.67,ESE,112,2.7,-999.0,98,-99.99,,,0.11,Acu-Link.com,2013-06-13 09:34:00,
2013-06-13 05:49:00,67.5,66.9,29.65,NE,45,3.2,-999.0,98,-99.99,,,0.11,Acu-Link.com,2013-06-13 09:49:00,
2013-06-13 06:04:00,67.6,67.0,29.65,West,270,3.7,-999.0,98,-99.99,,,0.11,Acu-Link.com,2013-06-13 10:04:00,
2013-06-13 06:19:00,67.8,67.2,29.64,WNW,292,3.2,-999.0,98,-99.99,,,0.11,Acu-Link.com,2013-06-13 10:19:00,
2013-06-13 06:35:00,67.8,67.2,29.63,WSW,247,3.7,-999.0,98,-99.99,,,0.11,Acu-Link.com,2013-06-13 10:35:00,
2013-06-13 06:50:00,68.7,68.1,29.63,SE,135,5.8,-999.0,98,-99.99,,,0.11,Acu-Link.com,2013-06-13 10:50:00,
2013-06-13 07:05:00,69.3,68.7,29.61,SSW,202,3.2,-999.0,98,-99.99,,,0.11,Acu-Link.com,2013-06-13 11:05:00,
2013-06-13 07:20:00,70.3,69.7,29.60,SSW,202,5.3,-999.0,98,-99.99,,,0.11,Acu-Link.com,2013-06-13 11:20:00,
2013-06-13 07:35:00,71.4,70.8,29.60,South,180,4.7,-999.0,98,-99.99,,,0.11,Acu-Link.com,2013-06-13 11:35:00,
2013-06-13 07:50:00,71.6,71.0,29.59,SSW,202,6.8,-999.0,98,-99.99,,,0.11,Acu-Link.com,2013-06-13 11:50:00,
2013-06-13 08:05:00,72.1,71.5,29.60,SSE,157,4.2,-999.0,98,-99.99,,,0.11,Acu-Link.com,2013-06-13 12:05:00,
2013-06-13 08:20:00,73.8,73.2,29.59,South,180,9.9,-999.0,98,-99.99,,,0.11,Acu-Link.com,2013-06-13 12:20:00,
2013-06-13 08:35:00,73.6,73.0,29.59,South,180,2.7,-999.0,98,-99.99,,,0.11,Acu-Link.com,2013-06-13 12:35:00,
2013-06-13 08:51:00,73.4,72.8,29.57,SSW,202,7.3,-999.0,98,-99.99,,,0.11,Acu-Link.com,2013-06-13 12:51:00,
2013-06-13 09:06:00,73.6,73.0,29.57,WSW,247,3.7,-999.0,98,-99.99,,,0.11,Acu-Link.com,2013-06-13 13:06:00,
2013-06-13 09:21:00,73.8,73.2,29.57,SE,135,6.3,-999.0,98,-99.99,,,0.11,Acu-Link.com,2013-06-13 13:21:00,
2013-06-13 09:36:00,74.3,73.7,29.56,SSW,202,8.3,-999.0,98,-99.99,,,0.11,Acu-Link.com,2013-06-13 13:36:00,
2013-06-13 09:51:00,75.9,75.3,29.55,SSW,202,8.3,-999.0,98,-99.99,,,0.11,Acu-Link.com,2013-06-13 13:51:00,
2013-06-13 10:06:00,78.3,77.7,29.54,West,270,6.3,-999.0,98,-99.99,,,0.11,Acu-Link.com,2013-06-13 14:06:00,
2013-06-13 10:21:00,78.1,77.5,29.53,SSW,202,6.8,-999.0,98,-99.99,,,0.11,Acu-Link.com,2013-06-13 14:21:00,
2013-06-13 10:36:00,79.7,79.1,29.54,SSE,157,6.3,-999.0,98,-99.99,,,0.11,Acu-Link.com,2013-06-13 14:36:00,
2013-06-13 10:51:00,77.7,77.1,29.55,South,180,4.2,-999.0,98,-99.99,,,0.11,Acu-Link.com,2013-06-13 14:51:00,
2013-06-13 11:07:00,75.9,75.3,29.60,West,270,10.4,-999.0,98,-99.99,,,0.11,Acu-Link.com,2013-06-13 15:07:00,
2013-06-13 11:22:00,71.2,70.6,29.58,North,0,2.7,-999.0,98,-99.99,,,0.12,Acu-Link.com,2013-06-13 15:22:00,
2013-06-13 11:37:00,72.0,71.4,29.56,SSW,202,4.2,-999.0,98,-99.99,,,0.62,Acu-Link.com,2013-06-13 15:37:00,
2013-06-13 11:52:00,75.9,75.3,29.54,South,180,3.7,-999.0,98,-99.99,,,0.62,Acu-Link.com,2013-06-13 15:52:00,
2013-06-13 12:07:00,76.1,75.5,29.51,WSW,247,4.2,-999.0,98,-99.99,,,0.62,Acu-Link.com,2013-06-13 16:07:00,
2013-06-13 12:22:00,78.1,77.5,29.51,South,180,2.7,-999.0,98,-99.99,,,0.62,Acu-Link.com,2013-06-13 16:22:00,
2013-06-13 12:37:00,79.7,79.1,29.48,SSE,157,5.3,-999.0,98,-99.99,,,0.62,Acu-Link.com,2013-06-13 16:37:00,
2013-06-13 12:52:00,81.3,80.7,29.45,SSE,157,5.8,-999.0,98,-99.99,,,0.62,Acu-Link.com,2013-06-13 16:52:00,
2013-06-13 13:07:00,82.4,81.8,29.43,SW,225,6.8,-999.0,98,-99.99,,,0.62,Acu-Link.com,2013-06-13 17:07:00,
2013-06-13 13:23:00,82.8,82.2,29.42,SW,225,4.2,-999.0,98,-99.99,,,0.62,Acu-Link.com,2013-06-13 17:23:00,
2013-06-13 13:38:00,84.6,84.0,29.41,ESE,112,5.3,-999.0,98,-99.99,,,0.62,Acu-Link.com,2013-06-13 17:38:00,
2013-06-13 13:53:00,88.0,87.4,29.42,SSW,202,3.2,-999.0,98,-99.99,,,0.62,Acu-Link.com,2013-06-13 17:53:00,
2013-06-13 14:08:00,89.4,80.0,29.41,SW,225,5.8,-999.0,74,-99.99,,,0.62,Acu-Link.com,2013-06-13 18:08:00,
2013-06-13 14:23:00,90.1,73.8,29.41,South,180,5.3,-999.0,59,-99.99,,,0.62,Acu-Link.com,2013-06-13 18:23:00,
2013-06-13 14:38:00,90.7,72.8,29.40,South,180,12.5,-999.0,56,-99.99,,,0.62,Acu-Link.com,2013-06-13 18:38:00,
2013-06-13 14:53:00,89.6,68.5,29.40,SSE,157,9.4,-999.0,50,-99.99,,,0.62,Acu-Link.com,2013-06-13 18:53:00,
2013-06-13 15:08:00,90.1,69.5,29.39,SSW,202,5.3,-999.0,51,-99.99,,,0.62,Acu-Link.com,2013-06-13 19:08:00,
2013-06-13 15:23:00,90.1,70.1,29.38,West,270,3.2,-999.0,52,-99.99,,,0.62,Acu-Link.com,2013-06-13 19:23:00,
2013-06-13 15:39:00,91.2,69.3,29.37,SSE,157,7.3,-999.0,49,-99.99,,,0.62,Acu-Link.com,2013-06-13 19:39:00,
2013-06-13 15:54:00,91.6,73.1,29.37,WSW,247,3.7,-999.0,55,-99.99,,,0.62,Acu-Link.com,2013-06-13 19:54:00,
2013-06-13 16:09:00,89.4,74.6,29.37,SSW,202,4.7,-999.0,62,-99.99,,,0.62,Acu-Link.com,2013-06-13 20:09:00,
2013-06-13 16:24:00,87.8,76.8,29.36,SSW,202,6.3,-999.0,70,-99.99,,,0.62,Acu-Link.com,2013-06-13 20:24:00,
2013-06-13 16:39:00,87.3,77.1,29.36,South,180,7.3,-999.0,72,-99.99,,,0.62,Acu-Link.com,2013-06-13 20:39:00,
2013-06-13 16:54:00,86.2,77.3,29.35,South,180,3.7,-999.0,75,-99.99,,,0.62,Acu-Link.com,2013-06-13 20:54:00,
2013-06-13 17:09:00,84.2,81.9,29.35,SSW,202,4.7,-999.0,93,-99.99,,,0.62,Acu-Link.com,2013-06-13 21:09:00,
2013-06-13 17:24:00,76.3,75.7,29.34,South,180,5.8,-999.0,98,-99.99,,,0.65,Acu-Link.com,2013-06-13 21:24:00,
2013-06-13 17:39:00,73.9,73.3,29.36,SSE,157,4.7,-999.0,98,-99.99,,,0.66,Acu-Link.com,2013-06-13 21:39:00,
2013-06-13 17:55:00,72.3,71.7,29.35,SSE,157,4.2,-999.0,98,-99.99,,,0.69,Acu-Link.com,2013-06-13 21:55:00,
2013-06-13 18:10:00,72.0,71.4,29.35,SSW,202,3.7,-999.0,98,-99.99,,,0.72,Acu-Link.com,2013-06-13 22:10:00,
2013-06-13 18:25:00,71.4,70.8,29.37,South,180,6.3,-999.0,98,-99.99,,,0.73,Acu-Link.com,2013-06-13 22:25:00,
2013-06-13 18:40:00,70.7,70.1,29.37,South,180,4.7,-999.0,98,-99.99,,,0.74,Acu-Link.com,2013-06-13 22:40:00,
2013-06-13 18:55:00,70.2,69.6,29.37,South,180,6.3,-999.0,98,-99.99,,,0.75,Acu-Link.com,2013-06-13 22:55:00,
2013-06-13 19:10:00,69.8,69.2,29.34,South,180,1.1,-999.0,98,-99.99,,,0.76,Acu-Link.com,2013-06-13 23:10:00,
2013-06-13 19:25:00,70.3,69.7,29.35,WNW,292,2.7,-999.0,98,-99.99,,,0.77,Acu-Link.com,2013-06-13 23:25:00,
2013-06-13 19:40:00,70.2,69.6,29.35,South,180,3.7,-999.0,98,-99.99,,,0.78,Acu-Link.com,2013-06-13 23:40:00,
2013-06-13 19:55:00,70.2,69.6,29.36,SW,225,2.7,-999.0,98,-99.99,,,0.78,Acu-Link.com,2013-06-13 23:55:00,
2013-06-13 20:11:00,70.2,69.6,29.35,South,180,3.7,-999.0,98,-99.99,,,0.78,Acu-Link.com,2013-06-14 00:11:00,
2013-06-13 20:26:00,70.2,69.6,29.36,South,180,5.3,-999.0,98,-99.99,,,0.78,Acu-Link.com,2013-06-14 00:26:00,
2013-06-13 20:41:00,70.2,69.6,29.37,South,180,5.3,-999.0,98,-99.99,,,0.78,Acu-Link.com,2013-06-14 00:41:00,
2013-06-13 20:56:00,70.2,69.6,29.37,WSW,247,4.2,-999.0,98,-99.99,,,0.78,Acu-Link.com,2013-06-14 00:56:00,
2013-06-13 21:11:00,70.3,69.7,29.37,South,180,4.7,-999.0,98,-99.99,,,0.78,Acu-Link.com,2013-06-14 01:11:00,
2013-06-13 21:26:00,70.7,70.1,29.38,South,180,5.8,-999.0,98,-99.99,,,0.78,Acu-Link.com,2013-06-14 01:26:00,
2013-06-13 21:41:00,70.9,70.3,29.38,SSW,202,4.2,-999.0,98,-99.99,,,0.78,Acu-Link.com,2013-06-14 01:41:00,
2013-06-13 21:56:00,70.7,70.1,29.38,ENE,67,3.2,-999.0,98,-99.99,,,0.78,Acu-Link.com,2013-06-14 01:56:00,
2013-06-13 22:11:00,70.7,70.1,29.39,SW,225,3.2,-999.0,98,-99.99,,,0.78,Acu-Link.com,2013-06-14 02:11:00,
2013-06-13 22:27:00,70.5,69.9,29.39,ESE,112,3.7,-999.0,98,-99.99,,,0.78,Acu-Link.com,2013-06-14 02:27:00,
2013-06-13 22:42:00,70.3,69.7,29.39,SSE,157,3.7,-999.0,98,-99.99,,,0.78,Acu-Link.com,2013-06-14 02:42:00,
2013-06-13 22:57:00,70.3,69.7,29.39,SW,225,3.2,-999.0,98,-99.99,,,0.78,Acu-Link.com,2013-06-14 02:57:00,
2013-06-13 23:12:00,70.2,69.6,29.39,South,180,3.7,-999.0,98,-99.99,,,0.78,Acu-Link.com,2013-06-14 03:12:00,
2013-06-13 23:27:00,69.8,69.2,29.40,SW,225,8.3,-999.0,98,-99.99,,,0.78,Acu-Link.com,2013-06-14 03:27:00,
2013-06-13 23:42:00,69.8,69.2,29.41,WNW,292,4.2,-999.0,98,-99.99,,,0.78,Acu-Link.com,2013-06-14 03:42:00,
2013-06-13 23:57:00,69.4,68.8,29.41,North,0,3.2,-999.0,98,-99.99,,,0.78,Acu-Link.com,2013-06-14 03:57:00,